MMCZ

Cozumel International Airport

Airport
ICAO code
MMCZ
IATA Code
CZM
Summary
ICAO Region
CARSAM
ICAO Territory
Location

Cozumel Island, Quintana Roo

Serving
Cozumel
Elevation
15 ft
Coordinates
20° 31' 21" N , 86° 55' 32" W
KCC
Airport BS
Bird Strike
Airport WX
Tropical Revolving Storm
Metar
MMCZ 221943Z 13011KT 8SM SCT015TCU 33/24 A2989 RMK 8/200 SC

International airport serving the Island of Cozumel and the city of San Miguel, Mexico.

Climatology

Warm desert climate (Köppen climate classification BWh)

Runways

Designator Length Width Surface Rops
11/29 2700 45 ASP Yes/Yes
5/23 3098 45 ASP Yes/Yes

Airport map

Aerial View

SKYbrary Partners:

Safety knowledge contributed by: